DCM228 NTAA-NTTB
Flight info
| Callsign | DCM228 |
|---|---|
| Flight time | 0h 32m |
| Altitude | 22000 |
| Route | VAITE4E VAITE DCT HHN HHN1B |
| Aircraft | CL60/M-SBDE1E2E3FGHIJ1J4J5J7M3RWXYZ/LB1V1D1 |
Departure
| Time | 2026-05-06 13:01 |
|---|---|
| Airport | Fa'a'ā International Airport (NTAA) |
Arrival
| Time | 2026-05-06 13:33 |
|---|---|
| Airport | Bora Bora Airport (NTTB) |
| Time | Latitude | Longitude | Altitude | Speed | Heading |
|---|---|---|---|---|---|
| 2026-05-06 12:28 | -17.55474 | -149.61237 | 15 ft | 0 kts | 232° |
| 2026-05-06 12:58 | -17.55484 | -149.61250 | 15 ft | 5 kts | 223° |
| 2026-05-06 12:59 | -17.55526 | -149.61247 | 15 ft | 7 kts | 143° |
| 2026-05-06 12:59 | -17.55578 | -149.61208 | 15 ft | 10 kts | 145° |
| 2026-05-06 12:59 | -17.55644 | -149.61157 | 15 ft | 10 kts | 127° |
| 2026-05-06 12:59 | -17.55641 | -149.61112 | 15 ft | 0 kts | 52° |
| 2026-05-06 13:00 | -17.55625 | -149.61089 | 15 ft | 23 kts | 53° |
| 2026-05-06 13:00 | -17.55361 | -149.60707 | 15 ft | 102 kts | 54° |
| 2026-05-06 13:00 | -17.54816 | -149.59918 | 49 ft | 154 kts | 55° |
| 2026-05-06 13:00 | -17.54163 | -149.58975 | 479 ft | 167 kts | 53° |
| 2026-05-06 13:01 | -17.53328 | -149.58112 | 1033 ft | 175 kts | 28° |
| 2026-05-06 13:01 | -17.52094 | -149.57913 | 1466 ft | 196 kts | 349° |
| 2026-05-06 13:01 | -17.50842 | -149.58742 | 1727 ft | 228 kts | 305° |
| 2026-05-06 13:01 | -17.50006 | -149.60107 | 2728 ft | 223 kts | 302° |
| 2026-05-06 13:02 | -17.49153 | -149.61508 | 3666 ft | 229 kts | 303° |
| 2026-05-06 13:02 | -17.48268 | -149.62911 | 4618 ft | 234 kts | 305° |
| 2026-05-06 13:02 | -17.47335 | -149.64310 | 5509 ft | 240 kts | 306° |
| 2026-05-06 13:02 | -17.46360 | -149.65761 | 6420 ft | 245 kts | 306° |
| 2026-05-06 13:03 | -17.45368 | -149.67235 | 7266 ft | 250 kts | 306° |
| 2026-05-06 13:03 | -17.44267 | -149.68652 | 8147 ft | 250 kts | 320° |
| 2026-05-06 13:03 | -17.42919 | -149.69783 | 8990 ft | 251 kts | 324° |
| 2026-05-06 13:03 | -17.41450 | -149.70966 | 9426 ft | 275 kts | 323° |
| 2026-05-06 13:04 | -17.39826 | -149.72279 | 9859 ft | 297 kts | 323° |
| 2026-05-06 13:04 | -17.38135 | -149.73651 | 10600 ft | 306 kts | 323° |
| 2026-05-06 13:04 | -17.36433 | -149.75030 | 11399 ft | 311 kts | 322° |
| 2026-05-06 13:04 | -17.34693 | -149.76442 | 12208 ft | 314 kts | 322° |
| 2026-05-06 13:05 | -17.32942 | -149.77863 | 13003 ft | 318 kts | 322° |
| 2026-05-06 13:05 | -17.31192 | -149.79282 | 13776 ft | 320 kts | 322° |
| 2026-05-06 13:05 | -17.29429 | -149.80711 | 14523 ft | 323 kts | 321° |
| 2026-05-06 13:05 | -17.27636 | -149.82165 | 15260 ft | 325 kts | 321° |
| 2026-05-06 13:06 | -17.25868 | -149.83600 | 16121 ft | 328 kts | 321° |
| 2026-05-06 13:06 | -17.24040 | -149.85082 | 17079 ft | 330 kts | 321° |
| 2026-05-06 13:06 | -17.22206 | -149.86568 | 18069 ft | 332 kts | 322° |
| 2026-05-06 13:06 | -17.20361 | -149.88065 | 19104 ft | 334 kts | 322° |
| 2026-05-06 13:07 | -17.18500 | -149.89572 | 19646 ft | 337 kts | 322° |
| 2026-05-06 13:07 | -17.16615 | -149.91098 | 20117 ft | 339 kts | 321° |
| 2026-05-06 13:07 | -17.14746 | -149.92612 | 20626 ft | 341 kts | 321° |
| 2026-05-06 13:07 | -17.12856 | -149.94141 | 21233 ft | 342 kts | 321° |
| 2026-05-06 13:08 | -17.10914 | -149.95714 | 21601 ft | 354 kts | 321° |
| 2026-05-06 13:08 | -17.09029 | -149.97447 | 21765 ft | 369 kts | 310° |
| 2026-05-06 13:08 | -17.07668 | -149.99805 | 21931 ft | 384 kts | 293° |
| 2026-05-06 13:08 | -17.06651 | -150.02454 | 21940 ft | 403 kts | 291° |
| 2026-05-06 13:09 | -17.05582 | -150.05257 | 21946 ft | 416 kts | 292° |
| 2026-05-06 13:09 | -17.04496 | -150.08093 | 21949 ft | 420 kts | 291° |
| 2026-05-06 13:09 | -17.03401 | -150.10954 | 21945 ft | 418 kts | 291° |
| 2026-05-06 13:09 | -17.02328 | -150.13754 | 21945 ft | 415 kts | 291° |
| 2026-05-06 13:10 | -17.01259 | -150.16542 | 21946 ft | 413 kts | 291° |
| 2026-05-06 13:10 | -17.00177 | -150.19359 | 21946 ft | 413 kts | 291° |
| 2026-05-06 13:10 | -16.99111 | -150.22134 | 21948 ft | 413 kts | 291° |
| 2026-05-06 13:10 | -16.98037 | -150.24927 | 21950 ft | 414 kts | 291° |
| 2026-05-06 13:11 | -16.96962 | -150.27724 | 21949 ft | 414 kts | 291° |
| 2026-05-06 13:11 | -16.95877 | -150.30543 | 21947 ft | 414 kts | 291° |
| 2026-05-06 13:11 | -16.94797 | -150.33347 | 21950 ft | 414 kts | 291° |
| 2026-05-06 13:11 | -16.93714 | -150.36157 | 21947 ft | 414 kts | 291° |
| 2026-05-06 13:12 | -16.92625 | -150.38983 | 21948 ft | 414 kts | 292° |
| 2026-05-06 13:12 | -16.91552 | -150.41765 | 21950 ft | 414 kts | 292° |
| 2026-05-06 13:12 | -16.90456 | -150.44603 | 21953 ft | 415 kts | 292° |
| 2026-05-06 13:12 | -16.89354 | -150.47456 | 21958 ft | 415 kts | 291° |
| 2026-05-06 13:13 | -16.88260 | -150.50290 | 21959 ft | 415 kts | 291° |
| 2026-05-06 13:13 | -16.87164 | -150.53124 | 21956 ft | 415 kts | 291° |
| 2026-05-06 13:13 | -16.86076 | -150.55937 | 21955 ft | 414 kts | 291° |
| 2026-05-06 13:13 | -16.84987 | -150.58752 | 21959 ft | 414 kts | 291° |
| 2026-05-06 13:14 | -16.83909 | -150.61537 | 21957 ft | 414 kts | 291° |
| 2026-05-06 13:14 | -16.82822 | -150.64343 | 21960 ft | 414 kts | 292° |
| 2026-05-06 13:14 | -16.81708 | -150.67217 | 21957 ft | 415 kts | 292° |
| 2026-05-06 13:14 | -16.80621 | -150.70021 | 21963 ft | 414 kts | 292° |
| 2026-05-06 13:15 | -16.79536 | -150.72818 | 21964 ft | 414 kts | 292° |
| 2026-05-06 13:15 | -16.78442 | -150.75636 | 21961 ft | 414 kts | 292° |
| 2026-05-06 13:15 | -16.77356 | -150.78455 | 21957 ft | 414 kts | 291° |
| 2026-05-06 13:15 | -16.76340 | -150.81299 | 21932 ft | 414 kts | 290° |
| 2026-05-06 13:16 | -16.75309 | -150.84152 | 21932 ft | 413 kts | 292° |
| 2026-05-06 13:16 | -16.74205 | -150.86934 | 21946 ft | 413 kts | 292° |
| 2026-05-06 13:16 | -16.73102 | -150.89714 | 21957 ft | 414 kts | 292° |
| 2026-05-06 13:16 | -16.72000 | -150.92500 | 21953 ft | 414 kts | 292° |
| 2026-05-06 13:17 | -16.70878 | -150.95340 | 21955 ft | 414 kts | 292° |
| 2026-05-06 13:17 | -16.69779 | -150.98126 | 21946 ft | 414 kts | 292° |
| 2026-05-06 13:17 | -16.68695 | -151.00908 | 21942 ft | 415 kts | 291° |
| 2026-05-06 13:17 | -16.67703 | -151.03780 | 21891 ft | 413 kts | 288° |
| 2026-05-06 13:18 | -16.66816 | -151.06601 | 21468 ft | 404 kts | 288° |
| 2026-05-06 13:18 | -16.65954 | -151.09355 | 20976 ft | 397 kts | 288° |
| 2026-05-06 13:18 | -16.65091 | -151.12105 | 20462 ft | 391 kts | 288° |
| 2026-05-06 13:18 | -16.64250 | -151.14784 | 19948 ft | 385 kts | 288° |
| 2026-05-06 13:19 | -16.63420 | -151.17432 | 19440 ft | 380 kts | 288° |
| 2026-05-06 13:19 | -16.62605 | -151.20024 | 18937 ft | 374 kts | 288° |
| 2026-05-06 13:19 | -16.61809 | -151.22557 | 18458 ft | 369 kts | 288° |
| 2026-05-06 13:19 | -16.61016 | -151.25079 | 17964 ft | 364 kts | 288° |
| 2026-05-06 13:20 | -16.60234 | -151.27563 | 17513 ft | 359 kts | 288° |
| 2026-05-06 13:20 | -16.59452 | -151.29993 | 17057 ft | 354 kts | 289° |
| 2026-05-06 13:20 | -16.58657 | -151.32411 | 16584 ft | 352 kts | 289° |
| 2026-05-06 13:20 | -16.57862 | -151.34825 | 16091 ft | 350 kts | 289° |
| 2026-05-06 13:21 | -16.57077 | -151.37210 | 15679 ft | 343 kts | 289° |
| 2026-05-06 13:21 | -16.56311 | -151.39539 | 15223 ft | 339 kts | 288° |
| 2026-05-06 13:21 | -16.55552 | -151.41841 | 14782 ft | 334 kts | 288° |
| 2026-05-06 13:21 | -16.54808 | -151.44101 | 14345 ft | 330 kts | 288° |
| 2026-05-06 13:22 | -16.54066 | -151.46353 | 13913 ft | 325 kts | 288° |
| 2026-05-06 13:22 | -16.53336 | -151.48569 | 13475 ft | 322 kts | 288° |
| 2026-05-06 13:22 | -16.52610 | -151.50769 | 13055 ft | 318 kts | 288° |
| 2026-05-06 13:22 | -16.51899 | -151.52924 | 12652 ft | 315 kts | 288° |
| 2026-05-06 13:23 | -16.51189 | -151.55074 | 12238 ft | 311 kts | 288° |
| 2026-05-06 13:23 | -16.50479 | -151.57225 | 11839 ft | 308 kts | 288° |
| 2026-05-06 13:23 | -16.49785 | -151.59326 | 11440 ft | 306 kts | 288° |
| 2026-05-06 13:23 | -16.49095 | -151.61417 | 11043 ft | 303 kts | 288° |
| 2026-05-06 13:24 | -16.48417 | -151.63467 | 10654 ft | 301 kts | 288° |
| 2026-05-06 13:24 | -16.47731 | -151.65540 | 10269 ft | 299 kts | 288° |
| 2026-05-06 13:24 | -16.47050 | -151.67598 | 9870 ft | 297 kts | 288° |
| 2026-05-06 13:24 | -16.46382 | -151.69617 | 9481 ft | 296 kts | 288° |
| 2026-05-06 13:25 | -16.45708 | -151.71652 | 9097 ft | 294 kts | 288° |
| 2026-05-06 13:25 | -16.45044 | -151.73662 | 8721 ft | 292 kts | 288° |
| 2026-05-06 13:25 | -16.44397 | -151.75671 | 8310 ft | 292 kts | 287° |
| 2026-05-06 13:25 | -16.43801 | -151.77690 | 7937 ft | 290 kts | 287° |
| 2026-05-06 13:26 | -16.43215 | -151.79688 | 7530 ft | 292 kts | 287° |
| 2026-05-06 13:26 | -16.42617 | -151.81720 | 7129 ft | 292 kts | 287° |
| 2026-05-06 13:26 | -16.42026 | -151.83731 | 6743 ft | 291 kts | 287° |
| 2026-05-06 13:26 | -16.41436 | -151.85739 | 6339 ft | 290 kts | 287° |
| 2026-05-06 13:27 | -16.40845 | -151.87747 | 5951 ft | 288 kts | 287° |
| 2026-05-06 13:27 | -16.40260 | -151.89734 | 5571 ft | 286 kts | 287° |
| 2026-05-06 13:27 | -16.39590 | -151.91684 | 5191 ft | 283 kts | 301° |
| 2026-05-06 13:27 | -16.38254 | -151.93103 | 4825 ft | 275 kts | 334° |
| 2026-05-06 13:28 | -16.36435 | -151.93474 | 4585 ft | 261 kts | 11° |
| 2026-05-06 13:28 | -16.34874 | -151.92714 | 4445 ft | 242 kts | 47° |
| 2026-05-06 13:28 | -16.34088 | -151.91229 | 4100 ft | 236 kts | 82° |
| 2026-05-06 13:28 | -16.34293 | -151.89594 | 3886 ft | 224 kts | 114° |
| 2026-05-06 13:29 | -16.35091 | -151.88321 | 3852 ft | 201 kts | 126° |
| 2026-05-06 13:29 | -16.35895 | -151.87225 | 3617 ft | 179 kts | 126° |
| 2026-05-06 13:29 | -16.36601 | -151.86249 | 3408 ft | 159 kts | 125° |
| 2026-05-06 13:29 | -16.37236 | -151.85370 | 3016 ft | 146 kts | 125° |
| 2026-05-06 13:30 | -16.37831 | -151.84546 | 2565 ft | 139 kts | 126° |
| 2026-05-06 13:30 | -16.38396 | -151.83763 | 2110 ft | 139 kts | 126° |
| 2026-05-06 13:30 | -16.38976 | -151.82945 | 1645 ft | 140 kts | 124° |
| 2026-05-06 13:30 | -16.39520 | -151.82170 | 1381 ft | 128 kts | 125° |
| 2026-05-06 13:31 | -16.40090 | -151.81427 | 1207 ft | 130 kts | 128° |
| 2026-05-06 13:31 | -16.40670 | -151.80711 | 1086 ft | 130 kts | 129° |
| 2026-05-06 13:31 | -16.41242 | -151.79974 | 892 ft | 132 kts | 124° |
| 2026-05-06 13:31 | -16.41758 | -151.79198 | 766 ft | 127 kts | 123° |
| 2026-05-06 13:32 | -16.42231 | -151.78420 | 604 ft | 124 kts | 122° |
| 2026-05-06 13:32 | -16.42718 | -151.77678 | 455 ft | 123 kts | 126° |
| 2026-05-06 13:32 | -16.43223 | -151.76932 | 368 ft | 127 kts | 124° |
| 2026-05-06 13:32 | -16.43729 | -151.76181 | 244 ft | 128 kts | 126° |
| 2026-05-06 13:33 | -16.44239 | -151.75421 | 108 ft | 122 kts | 125° |
| 2026-05-06 13:33 | -16.44593 | -151.74890 | 106 ft | 51 kts | 124° |
| 2026-05-06 13:33 | -16.44752 | -151.74641 | 107 ft | 36 kts | 126° |
| 2026-05-06 13:33 | -16.44809 | -151.74558 | 108 ft | 9 kts | 157° |
| 2026-05-06 13:34 | -16.44782 | -151.74602 | 109 ft | 11 kts | 313° |
| 2026-05-06 13:34 | -16.44729 | -151.74683 | 109 ft | 15 kts | 305° |
| 2026-05-06 13:34 | -16.44663 | -151.74780 | 110 ft | 18 kts | 303° |
| 2026-05-06 13:34 | -16.44585 | -151.74896 | 110 ft | 20 kts | 305° |
| 2026-05-06 13:35 | -16.44497 | -151.75030 | 110 ft | 23 kts | 304° |
| 2026-05-06 13:35 | -16.44405 | -151.75169 | 109 ft | 19 kts | 303° |
| 2026-05-06 13:35 | -16.44373 | -151.75244 | 109 ft | 10 kts | 253° |
| 2026-05-06 13:35 | -16.44440 | -151.75305 | 105 ft | 16 kts | 214° |
| 2026-05-06 13:36 | -16.44508 | -151.75356 | 103 ft | 6 kts | 216° |
| 2026-05-06 13:36 | -16.44546 | -151.75383 | 102 ft | 4 kts | 204° |
| 2026-05-06 13:36 | -16.44581 | -151.75388 | 102 ft | 4 kts | 212° |
| 2026-05-06 13:36 | -16.44595 | -151.75380 | 102 ft | 2 kts | 75° |
| 2026-05-06 13:37 | -16.44594 | -151.75378 | 102 ft | 0 kts | 72° |